Time;durP1;ratioP1;P1;durP2;ratioP2;P2;SDS_P1;SDS_P2;PMS_P1;PMS_P2;Temp;Humidity;BMP_temperature;BMP_pressure;BME280_temperature;BME280_humidity;BME280_pressure;Samples;Min_cycle;Max_cycle;Signal;HPM_P1;HPM_P2
2022/11/01 00:01:23;;;;;;;9.67;8.67;;;15.50;58.80;;;;;;20859;6817;116537;-83
2022/11/01 00:03:49;;;;;;;11.17;8.70;;;15.40;59.40;;;;;;20838;6817;117083;-83
2022/11/01 00:06:15;;;;;;;12.67;8.50;;;15.20;60.10;;;;;;20854;6817;116373;-86
2022/11/01 00:08:42;;;;;;;10.77;9.32;;;15.20;59.90;;;;;;20653;6817;277638;-86
2022/11/01 00:11:08;;;;;;;11.02;9.40;;;15.90;59.20;;;;;;20629;6817;285185;-84
2022/11/01 00:13:34;;;;;;;9.70;8.77;;;15.90;59.20;;;;;;20638;6817;333985;-84
2022/11/01 00:15:59;;;;;;;8.35;7.50;;;16.30;58.30;;;;;;20860;6817;115957;-83
2022/11/01 00:18:25;;;;;;;18.07;8.50;;;16.20;58.00;;;;;;20842;6817;119270;-83
2022/11/01 00:20:52;;;;;;;13.40;9.47;;;16.00;58.40;;;;;;20651;6817;306558;-83
2022/11/01 00:23:17;;;;;;;10.45;9.43;;;16.00;57.70;;;;;;20662;6817;335286;-83
2022/11/01 00:25:44;;;;;;;9.37;8.37;;;16.30;57.10;;;;;;20868;6817;117611;-86
2022/11/01 00:28:10;;;;;;;13.07;8.87;;;16.20;57.10;;;;;;20880;6817;117608;-83
2022/11/01 00:30:36;;;;;;;8.93;8.07;;;15.90;57.60;;;;;;20875;6817;118166;-83
2022/11/01 00:33:02;;;;;;;9.30;8.40;;;15.60;58.00;;;;;;20864;6817;116393;-83
2022/11/01 00:35:27;;;;;;;14.37;10.00;;;15.40;58.40;;;;;;20648;6817;305516;-84
2022/11/01 00:37:53;;;;;;;13.02;9.98;;;15.60;58.50;;;;;;20623;6817;339639;-83
2022/11/01 00:40:20;;;;;;;10.67;9.47;;;16.00;58.20;;;;;;20854;6817;117490;-83
2022/11/01 00:42:45;;;;;;;11.83;10.33;;;16.00;57.90;;;;;;20654;6817;306190;-84
2022/11/01 00:45:11;;;;;;;13.93;10.90;;;16.00;57.30;;;;;;20656;6817;301824;-83
2022/11/01 00:47:38;;;;;;;12.00;9.70;;;16.30;56.80;;;;;;20843;6817;117367;-83
2022/11/01 00:50:03;;;;;;;10.77;9.68;;;16.10;56.80;;;;;;20655;6815;305210;-83
2022/11/01 00:52:30;;;;;;;9.27;8.43;;;16.00;57.40;;;;;;20854;6817;117109;-83
2022/11/01 00:54:56;;;;;;;10.27;9.23;;;15.90;57.00;;;;;;20647;6817;308708;-83
2022/11/01 00:57:23;;;;;;;11.32;9.80;;;16.00;56.80;;;;;;20647;6817;335715;-83
2022/11/01 00:59:49;;;;;;;9.47;8.57;;;16.20;56.40;;;;;;20837;6817;119131;-83
2022/11/01 01:02:14;;;;;;;11.97;8.33;;;16.00;56.50;;;;;;20856;6817;116885;-83
2022/11/01 01:04:42;;;;;;;11.07;9.30;;;15.70;57.10;;;;;;20641;6817;306010;-83
2022/11/01 01:07:06;;;;;;;12.23;10.37;;;15.80;57.50;;;;;;20635;6817;314292;-83
2022/11/01 01:09:31;;;;;;;12.53;9.27;;;16.10;57.60;;;;;;20857;6817;116477;-85
2022/11/01 01:11:58;;;;;;;9.73;8.77;;;15.90;56.90;;;;;;20835;6817;122597;-83
2022/11/01 01:14:22;;;;;;;11.40;8.55;;;15.60;57.40;;;;;;20793;6817;115943;-83
2022/11/01 01:16:48;;;;;;;9.40;8.63;;;15.40;58.00;;;;;;20844;6817;117491;-83
2022/11/01 01:19:15;;;;;;;11.73;9.00;;;15.20;58.40;;;;;;20600;6817;278370;-83
2022/11/01 01:21:41;;;;;;;10.57;9.43;;;15.40;58.90;;;;;;20603;6817;306475;-83
2022/11/01 01:24:07;;;;;;;10.17;9.07;;;15.80;58.10;;;;;;20845;6817;116676;-84
2022/11/01 01:26:36;;;;;;;9.10;8.40;;;15.70;57.80;;;;;;20858;6817;117313;-84
2022/11/01 01:29:03;;;;;;;10.90;9.35;;;15.60;58.20;;;;;;20638;6817;304546;-83
2022/11/01 01:31:29;;;;;;;12.87;9.83;;;15.60;58.10;;;;;;20586;6835;276966;-83
2022/11/01 01:33:58;;;;;;;11.60;8.20;;;15.90;57.30;;;;;;20831;6820;118383;-83
2022/11/01 01:36:24;;;;;;;10.85;8.85;;;15.80;57.20;;;;;;20578;6839;301667;-83
2022/11/01 01:38:49;;;;;;;10.52;9.45;;;15.90;57.20;;;;;;20637;6817;306902;-83
2022/11/01 01:44:02;;;;;;;11.70;8.27;;;16.30;56.50;;;;;;20853;6817;117093;-83
2022/11/01 01:46:26;;;;;;;10.48;9.25;;;16.00;56.60;;;;;;20642;6817;305841;-83
2022/11/01 01:48:51;;;;;;;8.80;8.03;;;16.00;56.70;;;;;;20864;6817;119541;-83
2022/11/01 01:51:17;;;;;;;8.63;7.83;;;15.90;56.90;;;;;;20865;6817;73618;-83
2022/11/01 01:53:52;;;;;;;9.50;7.53;;;15.60;57.40;;;;;;20826;6817;119650;-83
2022/11/01 01:56:27;;;;;;;10.57;8.70;;;15.40;57.90;;;;;;20618;6817;307989;-83
2022/11/01 01:59:02;;;;;;;9.57;8.67;;;15.50;58.00;;;;;;20635;6817;279876;-83
2022/11/01 02:01:28;;;;;;;9.98;8.98;;;15.90;57.30;;;;;;20641;6816;334651;-83
2022/11/01 02:03:54;;;;;;;9.07;8.17;;;16.10;56.70;;;;;;20838;6817;119315;-83
2022/11/01 02:06:20;;;;;;;9.13;7.87;;;16.00;56.80;;;;;;20847;6817;116977;-85
2022/11/01 02:08:45;;;;;;;9.17;8.07;;;15.70;57.30;;;;;;20842;6817;117974;-82
2022/11/01 02:11:11;;;;;;;10.02;9.00;;;15.40;57.80;;;;;;20628;6817;305574;-83
2022/11/01 02:13:37;;;;;;;9.30;8.47;;;15.60;58.20;;;;;;20823;6817;118244;-83
2022/11/01 02:16:25;;;;;;;10.03;9.03;;;15.60;58.10;;;;;;20647;6817;276674;-82
2022/11/01 02:19:21;;;;;;;11.87;8.27;;;15.70;58.30;;;;;;20848;6817;116388;-82
2022/11/01 02:21:59;;;;;;;11.18;9.90;;;15.70;58.20;;;;;;20589;6817;310586;-83
2022/11/01 02:24:25;;;;;;;12.57;9.27;;;15.90;58.00;;;;;;20845;6817;117256;-82
2022/11/01 02:27:01;;;;;;;10.67;8.90;;;15.80;57.90;;;;;;19871;6817;281931;-83
2022/11/01 02:29:43;;;;;;;9.13;8.37;;;15.90;58.20;;;;;;20861;6817;116774;-83
2022/11/01 02:32:19;;;;;;;11.63;9.27;;;16.00;58.20;;;;;;20621;6817;308072;-83
2022/11/01 02:35:04;;;;;;;11.53;8.43;;;16.00;58.10;;;;;;20831;6817;116492;-82
2022/11/01 02:37:43;;;;;;;9.43;8.17;;;15.90;58.00;;;;;;20856;6817;116207;-83
2022/11/01 02:40:10;;;;;;;9.33;8.47;;;15.70;58.50;;;;;;20841;6817;117348;-82
2022/11/01 02:42:36;;;;;;;9.67;8.70;;;15.60;58.80;;;;;;20837;6817;121632;-83
2022/11/01 02:45:01;;;;;;;10.73;9.32;;;15.40;59.10;;;;;;20842;6817;121456;-83
2022/11/01 02:47:28;;;;;;;12.83;9.67;;;15.40;59.90;;;;;;20835;6817;121422;-83
2022/11/01 02:49:55;;;;;;;9.27;8.47;;;15.30;59.50;;;;;;20815;6817;117572;-83
2022/11/01 02:52:20;;;;;;;9.93;7.63;;;15.30;59.70;;;;;;20850;6817;67734;-82
2022/11/01 02:54:56;;;;;;;11.43;9.40;;;15.20;59.60;;;;;;20609;6817;334997;-83
2022/11/01 02:57:32;;;;;;;13.40;8.53;;;15.60;59.10;;;;;;20843;6817;117805;-83
2022/11/01 03:00:07;;;;;;;12.53;8.63;;;15.60;59.10;;;;;;20830;6817;117197;-83
2022/11/01 03:02:38;;;;;;;11.18;10.07;;;15.50;59.20;;;;;;20655;6817;305842;-82
2022/11/01 03:05:13;;;;;;;9.63;8.50;;;15.80;58.90;;;;;;20847;6817;117810;-83
2022/11/01 03:07:39;;;;;;;9.60;8.27;;;15.60;58.70;;;;;;20812;6817;120105;-83
2022/11/01 03:10:07;;;;;;;12.93;9.10;;;15.50;58.60;;;;;;20630;6817;305190;-83
2022/11/01 03:12:34;;;;;;;12.07;8.40;;;15.80;58.60;;;;;;20858;6816;117000;-83
2022/11/01 03:15:06;;;;;;;12.13;7.90;;;15.80;58.40;;;;;;20852;6817;116969;-83
2022/11/01 03:17:32;;;;;;;10.20;8.60;;;15.60;58.10;;;;;;20580;6817;334420;-82
2022/11/01 03:19:58;;;;;;;12.32;7.87;;;15.80;58.40;;;;;;20771;6817;118163;-83
2022/11/01 03:22:34;;;;;;;9.60;8.67;;;15.80;58.10;;;;;;20803;6817;121173;-83
2022/11/01 03:28:03;;;;;;;11.55;9.13;;;15.40;58.70;;;;;;20645;6817;305504;-83
2022/11/01 03:30:30;;;;;;;9.07;7.30;;;15.70;58.50;;;;;;20833;6817;116609;-83
2022/11/01 03:32:56;;;;;;;8.83;7.70;;;15.70;58.20;;;;;;20843;6817;117214;-84
2022/11/01 03:35:28;;;;;;;9.10;8.20;;;15.50;58.30;;;;;;20835;6817;122209;-84
2022/11/01 03:37:54;;;;;;;11.00;8.20;;;15.30;58.60;;;;;;20801;6817;116308;-83
2022/11/01 03:40:27;;;;;;;10.70;9.48;;;15.10;58.80;;;;;;20654;6817;304912;-82
2022/11/01 03:42:51;;;;;;;9.77;8.87;;;15.30;58.80;;;;;;20664;6817;282913;-83
2022/11/01 03:45:17;;;;;;;13.20;8.95;;;15.60;58.10;;;;;;20883;6817;116744;-83
2022/11/01 03:47:44;;;;;;;8.73;7.93;;;15.60;58.00;;;;;;20841;6817;116562;-82
2022/11/01 03:50:21;;;;;;;10.67;8.80;;;15.40;58.30;;;;;;20685;6817;277292;-86
2022/11/01 03:52:46;;;;;;;12.37;8.97;;;15.50;58.90;;;;;;20661;6817;276977;-83
2022/11/01 03:55:19;;;;;;;10.95;9.32;;;15.80;57.50;;;;;;20663;6817;310822;-82
2022/11/01 03:57:48;;;;;;;9.40;8.50;;;16.00;57.00;;;;;;20866;6817;120190;-83
2022/11/01 04:00:15;;;;;;;11.12;9.52;;;15.80;57.00;;;;;;20611;6817;335430;-82
2022/11/01 04:02:42;;;;;;;10.68;9.68;;;15.80;57.20;;;;;;20664;6817;334419;-83
2022/11/01 04:05:06;;;;;;;9.57;8.67;;;16.00;56.90;;;;;;20874;6817;116621;-83
2022/11/01 04:07:32;;;;;;;10.40;9.17;;;15.90;57.10;;;;;;20668;6817;305558;-83
2022/11/01 04:09:57;;;;;;;10.18;9.23;;;15.90;57.30;;;;;;20869;6817;122022;-82
2022/11/01 04:12:23;;;;;;;8.90;8.13;;;15.80;57.40;;;;;;20851;6817;116442;-84
2022/11/01 04:20:33;;;;;;;11.33;8.30;;;15.00;58.70;;;;;;20846;6817;116309;-82
2022/11/01 04:22:59;;;;;;;9.68;8.70;;;14.90;59.20;;;;;;20643;6815;277085;-83
2022/11/01 04:25:26;;;;;;;9.73;7.97;;;15.20;59.30;;;;;;20846;6816;119762;-83
2022/11/01 04:27:51;;;;;;;11.20;8.00;;;15.20;58.90;;;;;;20598;6817;287670;-83
2022/11/01 04:30:17;;;;;;;8.57;7.60;;;15.50;58.50;;;;;;20643;6817;292580;-83
2022/11/01 04:32:43;;;;;;;11.23;7.77;;;15.90;58.00;;;;;;20856;6817;117120;-82
2022/11/01 04:35:11;;;;;;;9.83;8.10;;;15.90;57.70;;;;;;20632;6817;305376;-82
2022/11/01 04:37:38;;;;;;;7.83;7.17;;;16.00;57.40;;;;;;20833;6817;117438;-83
2022/11/01 04:40:08;;;;;;;8.80;7.30;;;15.70;57.60;;;;;;20854;6817;117003;-82
2022/11/01 04:42:30;;;;;;;8.43;7.23;;;15.70;57.60;;;;;;20758;6817;117221;-83
2022/11/01 04:44:56;;;;;;;8.13;6.90;;;15.60;58.00;;;;;;20815;6817;118376;-83
2022/11/01 04:47:22;;;;;;;8.17;6.60;;;15.40;58.30;;;;;;20833;6817;116006;-83
2022/11/01 04:49:49;;;;;;;10.83;7.03;;;15.30;58.40;;;;;;20620;6817;277482;-83
2022/11/01 04:52:14;;;;;;;9.47;6.30;;;15.60;57.50;;;;;;20851;6817;121158;-82
2022/11/01 04:54:40;;;;;;;8.68;4.95;;;15.60;57.40;;;;;;20845;6817;121139;-83
2022/11/01 04:57:06;;;;;;;8.00;5.30;;;15.50;57.30;;;;;;20845;6817;119895;-83
2022/11/01 04:59:32;;;;;;;6.83;4.70;;;15.50;57.60;;;;;;20848;6817;116301;-81
2022/11/01 05:01:57;;;;;;;9.80;5.10;;;15.40;57.80;;;;;;20823;6817;117260;-83
2022/11/01 05:04:24;;;;;;;6.62;5.18;;;15.70;57.20;;;;;;20627;6817;336798;-82
2022/11/01 05:06:49;;;;;;;6.67;4.23;;;15.70;57.10;;;;;;20842;6817;117572;-83
2022/11/01 05:09:15;;;;;;;6.30;4.27;;;15.80;57.00;;;;;;20859;6817;115986;-83
2022/11/01 05:11:40;;;;;;;3.87;3.13;;;15.80;57.20;;;;;;20828;6817;121980;-83
2022/11/01 05:14:06;;;;;;;5.63;4.07;;;15.80;57.50;;;;;;20637;6817;315970;-82
2022/11/01 05:16:31;;;;;;;5.37;3.70;;;16.00;56.80;;;;;;20640;6817;277033;-83
2022/11/01 05:18:57;;;;;;;6.10;4.00;;;16.50;55.90;;;;;;20625;6817;334936;-82
2022/11/01 05:21:22;;;;;;;4.07;3.67;;;16.90;54.90;;;;;;20843;6817;116696;-83
2022/11/01 05:23:48;;;;;;;6.87;3.80;;;16.90;54.90;;;;;;20604;6817;279058;-83
2022/11/01 05:26:14;;;;;;;6.82;3.67;;;17.30;54.10;;;;;;20623;6817;336797;-82
2022/11/01 05:28:40;;;;;;;3.90;2.90;;;17.30;54.00;;;;;;20829;6817;117007;-85
2022/11/01 05:31:05;;;;;;;3.97;3.15;;;17.20;54.10;;;;;;20622;6817;317773;-82
2022/11/01 05:33:33;;;;;;;5.05;3.28;;;17.30;54.00;;;;;;20845;6817;117168;-82
2022/11/01 05:36:02;;;;;;;7.43;3.13;;;17.30;54.90;;;;;;20859;6815;117499;-82
2022/11/01 05:38:27;;;;;;;4.70;2.93;;;17.00;54.60;;;;;;20875;6817;122801;-82
2022/11/01 05:40:53;;;;;;;4.27;3.03;;;16.90;55.10;;;;;;20868;6817;115928;-82
2022/11/01 05:43:18;;;;;;;4.27;3.27;;;16.70;55.30;;;;;;20647;6817;275489;-84
2022/11/01 05:45:44;;;;;;;2.77;2.57;;;16.90;55.40;;;;;;20825;6817;117224;-82
2022/11/01 05:48:12;;;;;;;3.58;3.25;;;17.20;55.10;;;;;;20604;6817;281368;-82
2022/11/01 05:50:37;;;;;;;5.55;3.22;;;17.20;55.10;;;;;;20606;6817;333814;-82
2022/11/01 05:53:06;;;;;;;3.85;3.12;;;17.50;54.50;;;;;;20606;6817;329886;-82
2022/11/01 05:55:32;;;;;;;3.53;3.23;;;17.80;54.00;;;;;;20599;6817;276099;-82
2022/11/01 05:57:57;;;;;;;3.90;2.13;;;18.00;53.70;;;;;;20835;6817;116959;-82
2022/11/01 06:00:23;;;;;;;3.10;2.75;;;17.80;53.80;;;;;;20634;6817;291364;-83
2022/11/01 06:02:50;;;;;;;2.40;2.20;;;17.70;54.50;;;;;;20838;6817;116866;-83
2022/11/01 06:05:16;;;;;;;2.90;2.13;;;17.70;54.50;;;;;;20623;6817;306868;-84
2022/11/01 06:07:41;;;;;;;2.78;2.50;;;17.80;55.00;;;;;;20594;6817;305539;-83
2022/11/01 06:10:09;;;;;;;2.30;1.93;;;18.00;54.90;;;;;;20776;6817;116247;-82
2022/11/01 06:12:35;;;;;;;2.40;2.20;;;17.90;55.70;;;;;;20635;6817;306984;-80
2022/11/01 06:15:02;;;;;;;2.20;2.00;;;17.90;55.00;;;;;;20853;6817;117207;-83
2022/11/01 06:17:31;;;;;;;3.63;2.43;;;17.80;55.10;;;;;;20845;6817;117158;-83
2022/11/01 06:19:59;;;;;;;3.15;2.35;;;17.50;55.40;;;;;;20605;6817;283101;-84
2022/11/01 06:22:25;;;;;;;1.90;1.80;;;17.60;55.90;;;;;;20836;6817;117138;-84
2022/11/01 06:24:52;;;;;;;2.50;2.33;;;17.50;55.80;;;;;;20629;6817;305970;-84
2022/11/01 06:27:17;;;;;;;2.47;2.27;;;17.60;55.80;;;;;;20836;6817;117103;-84
2022/11/01 06:29:43;;;;;;;2.40;2.23;;;17.50;55.70;;;;;;20798;6817;118601;-84
2022/11/01 06:32:08;;;;;;;4.37;2.90;;;17.30;56.00;;;;;;20609;6817;296863;-82
2022/11/01 06:34:34;;;;;;;3.73;2.63;;;17.40;56.10;;;;;;20820;6817;117291;-85
2022/11/01 06:37:00;;;;;;;2.87;2.67;;;17.30;55.90;;;;;;20634;6817;314015;-84
2022/11/01 06:39:25;;;;;;;3.07;2.80;;;17.40;55.70;;;;;;20640;6817;285495;-84
2022/11/01 06:41:51;;;;;;;2.80;2.60;;;17.70;55.40;;;;;;20622;6817;305334;-84
2022/11/01 06:44:16;;;;;;;2.47;2.27;;;17.90;54.80;;;;;;20635;6817;302588;-83
2022/11/01 06:47:02;;;;;;;4.40;1.90;;;18.10;54.60;;;;;;20833;6815;118955;-82
2022/11/01 06:49:29;;;;;;;2.60;2.10;;;17.90;54.60;;;;;;20172;6817;276806;-83
2022/11/01 06:51:55;;;;;;;2.47;1.90;;;17.90;55.10;;;;;;20296;6817;301635;-83
2022/11/01 06:54:20;;;;;;;2.57;1.83;;;18.10;55.10;;;;;;20864;6817;116726;-86
2022/11/01 06:56:46;;;;;;;1.67;1.40;;;17.90;55.10;;;;;;20631;6817;305535;-82
2022/11/01 06:59:15;;;;;;;1.47;1.37;;;18.00;55.60;;;;;;20845;6817;120933;-83
2022/11/01 07:01:39;;;;;;;1.63;1.30;;;17.60;56.00;;;;;;20794;6817;117631;-84
2022/11/01 07:04:04;;;;;;;2.17;1.40;;;17.60;56.00;;;;;;20637;6817;307766;-84
2022/11/01 07:06:30;;;;;;;1.70;1.60;;;17.70;56.80;;;;;;20856;6817;120574;-85
2022/11/01 07:08:56;;;;;;;2.78;1.25;;;17.60;56.50;;;;;;20850;6817;116903;-83
2022/11/01 07:11:21;;;;;;;1.10;1.10;;;17.40;56.70;;;;;;20830;6817;119129;-84
2022/11/01 07:13:47;;;;;;;1.27;1.17;;;17.30;57.10;;;;;;20604;6817;308176;-84
2022/11/01 07:16:13;;;;;;;4.47;3.75;;;17.40;57.90;;;;;;20835;6817;116639;-86
2022/11/01 07:18:40;;;;;;;6.60;4.53;;;17.20;57.40;;;;;;20797;6817;117432;-86
2022/11/01 07:21:05;;;;;;;6.03;4.37;;;17.20;57.40;;;;;;20622;6817;276581;-82
2022/11/01 07:23:32;;;;;;;4.27;3.73;;;17.40;57.30;;;;;;20842;6817;117278;-86
2022/11/01 07:25:59;;;;;;;4.50;4.10;;;17.30;57.00;;;;;;20605;6817;277375;-86
2022/11/01 07:28:25;;;;;;;4.53;4.12;;;17.40;57.00;;;;;;20571;6817;326002;-84
2022/11/01 07:30:50;;;;;;;3.60;3.30;;;17.70;56.80;;;;;;20827;6817;117457;-83
2022/11/01 07:33:15;;;;;;;5.33;3.73;;;17.60;56.70;;;;;;20600;6817;276503;-84
2022/11/01 07:35:41;;;;;;;4.27;3.97;;;17.70;57.10;;;;;;20822;6817;119979;-82
2022/11/01 07:38:07;;;;;;;4.50;4.17;;;17.60;57.10;;;;;;20634;6817;280247;-83
2022/11/01 07:40:32;;;;;;;3.92;3.50;;;17.70;57.30;;;;;;20631;6817;337243;-82
2022/11/01 07:42:59;;;;;;;5.18;2.83;;;18.00;57.00;;;;;;20832;6817;116700;-84
2022/11/01 07:45:24;;;;;;;2.30;2.20;;;17.90;56.90;;;;;;20817;6817;118567;-85
2022/11/01 07:47:50;;;;;;;2.97;2.70;;;17.70;57.30;;;;;;20581;6817;335572;-82
2022/11/01 07:50:16;;;;;;;2.00;1.90;;;17.80;57.60;;;;;;20813;6817;117436;-81
2022/11/01 07:52:42;;;;;;;1.60;1.50;;;17.80;57.60;;;;;;20822;6817;117135;-82
2022/11/01 07:55:08;;;;;;;2.75;1.30;;;17.60;57.80;;;;;;20814;6817;116970;-82
2022/11/01 07:57:40;;;;;;;1.30;1.20;;;17.50;58.10;;;;;;20787;6817;117668;-81
2022/11/01 08:00:06;;;;;;;1.60;1.50;;;17.40;58.40;;;;;;20805;6816;117009;-81
2022/11/01 08:02:32;;;;;;;1.70;1.60;;;17.30;58.60;;;;;;20591;6817;279955;-82
2022/11/01 08:04:59;;;;;;;1.20;1.20;;;17.60;59.10;;;;;;20577;6817;279486;-82
2022/11/01 08:07:28;;;;;;;1.77;1.50;;;17.90;58.00;;;;;;20601;6817;306595;-83
2022/11/01 08:09:55;;;;;;;1.30;1.20;;;18.30;57.50;;;;;;20812;6817;117201;-82
2022/11/01 08:12:20;;;;;;;1.67;1.30;;;18.30;57.30;;;;;;20841;6817;116168;-82
2022/11/01 08:14:46;;;;;;;4.37;4.07;;;18.10;57.50;;;;;;20816;6817;117187;-83
2022/11/01 08:17:12;;;;;;;1.80;1.80;;;17.90;57.70;;;;;;20816;6817;117253;-84
2022/11/01 08:19:38;;;;;;;2.63;2.53;;;17.80;57.90;;;;;;20805;6817;117410;-83
2022/11/01 08:22:04;;;;;;;1.67;1.47;;;17.70;58.20;;;;;;20823;6817;120308;-82
2022/11/01 08:24:29;;;;;;;3.47;3.28;;;17.70;58.50;;;;;;20822;6817;116861;-83
2022/11/01 08:26:55;;;;;;;1.70;1.60;;;17.60;58.60;;;;;;20819;6817;117610;-84
2022/11/01 08:29:21;;;;;;;4.05;2.50;;;17.60;58.70;;;;;;20616;6817;338483;-82
2022/11/01 08:31:48;;;;;;;2.87;2.40;;;17.90;57.80;;;;;;20814;6817;117115;-82
2022/11/01 08:34:12;;;;;;;2.30;2.10;;;18.10;58.20;;;;;;20817;6817;121606;-82
2022/11/01 08:36:37;;;;;;;1.95;1.85;;;18.10;57.30;;;;;;20623;6817;281660;-82
2022/11/01 08:39:03;;;;;;;2.78;2.60;;;18.40;56.50;;;;;;20833;6817;116677;-82
2022/11/01 08:41:32;;;;;;;1.70;1.60;;;18.50;56.20;;;;;;20853;6817;117501;-83
2022/11/01 08:43:58;;;;;;;1.80;1.70;;;18.40;56.30;;;;;;20836;6817;117115;-82
2022/11/01 08:46:23;;;;;;;3.47;3.27;;;18.30;56.40;;;;;;20842;6817;117276;-82
2022/11/01 08:48:54;;;;;;;1.50;1.47;;;18.30;56.60;;;;;;20880;6817;116761;-82
2022/11/01 08:51:15;;;;;;;1.65;1.55;;;18.30;56.80;;;;;;20606;6817;305929;-82
2022/11/01 08:53:40;;;;;;;1.77;1.60;;;18.60;56.10;;;;;;20604;6817;296720;-82
2022/11/01 08:56:06;;;;;;;1.30;1.20;;;19.20;55.10;;;;;;20837;6817;117190;-82
2022/11/01 08:58:32;;;;;;;2.80;2.60;;;19.20;55.20;;;;;;20833;6817;117449;-82
2022/11/01 09:00:58;;;;;;;3.55;3.33;;;19.10;55.30;;;;;;20844;6817;117967;-82
2022/11/01 09:03:24;;;;;;;2.00;1.90;;;18.90;55.70;;;;;;20842;6817;117095;-82
2022/11/01 09:05:51;;;;;;;2.13;1.80;;;18.90;55.70;;;;;;20811;6817;120926;-82
2022/11/01 09:08:17;;;;;;;2.63;2.53;;;18.80;55.80;;;;;;20839;6817;117173;-81
2022/11/01 09:10:42;;;;;;;2.03;1.93;;;18.80;56.10;;;;;;20842;6816;122541;-82
2022/11/01 09:13:08;;;;;;;2.60;2.50;;;18.70;56.10;;;;;;20611;6817;306406;-82
2022/11/01 09:15:34;;;;;;;1.83;1.80;;;19.40;55.70;;;;;;20627;6817;277425;-82
2022/11/01 09:17:59;;;;;;;2.07;1.97;;;19.40;54.80;;;;;;20819;6817;117234;-82
2022/11/01 09:20:27;;;;;;;1.80;1.70;;;19.60;54.80;;;;;;20601;6817;307729;-83
2022/11/01 09:22:53;;;;;;;2.20;2.05;;;19.60;54.10;;;;;;20617;6817;306351;-81
2022/11/01 09:25:20;;;;;;;2.40;2.20;;;19.90;53.80;;;;;;20581;6835;306516;-81
2022/11/01 09:27:45;;;;;;;0.90;0.90;;;20.20;53.50;;;;;;20759;6820;117321;-81
2022/11/01 09:30:11;;;;;;;0.90;0.90;;;20.00;53.40;;;;;;20771;6835;119634;-78
2022/11/01 09:32:36;;;;;;;1.00;0.90;;;19.80;53.90;;;;;;20816;6820;118635;-80
2022/11/01 09:35:02;;;;;;;1.57;1.57;;;19.60;54.50;;;;;;20576;6835;277496;-81
2022/11/01 09:37:28;;;;;;;1.53;1.43;;;19.80;54.30;;;;;;20611;6820;305903;-81
2022/11/01 09:39:54;;;;;;;1.20;1.20;;;20.60;53.00;;;;;;20539;6839;311677;-82
2022/11/01 09:42:34;;;;;;;1.10;1.10;;;20.60;53.00;;;;;;20838;6817;117164;-80
2022/11/01 09:45:05;;;;;;;0.90;0.90;;;20.60;52.80;;;;;;20554;6835;335777;-83
2022/11/01 09:47:32;;;;;;;1.10;1.03;;;20.70;52.40;;;;;;20566;6820;305442;-82
2022/11/01 09:50:16;;;;;;;2.63;1.13;;;21.00;51.90;;;;;;20715;6839;118401;-82
2022/11/01 09:52:42;;;;;;;0.80;0.80;;;20.90;51.90;;;;;;20598;6817;334121;-83
2022/11/01 09:55:07;;;;;;;0.70;0.62;;;21.10;51.50;;;;;;20826;6817;120273;-82
2022/11/01 09:57:39;;;;;;;1.83;1.73;;;21.10;51.70;;;;;;20519;6817;301270;-82
2022/11/01 10:00:05;;;;;;;0.80;0.80;;;21.20;51.20;;;;;;20798;6817;117096;-81
2022/11/01 10:02:36;;;;;;;0.70;0.70;;;21.30;51.20;;;;;;20614;6817;277425;-81
2022/11/01 10:05:13;;;;;;;0.97;0.97;;;21.50;50.50;;;;;;20613;6817;276361;-81
2022/11/01 10:08:00;;;;;;;0.40;0.40;;;21.80;49.40;;;;;;20798;6817;117914;-81
2022/11/01 10:10:43;;;;;;;1.37;0.90;;;21.80;49.60;;;;;;20820;6817;121997;-81
2022/11/01 10:13:31;;;;;;;0.80;0.80;;;21.60;49.90;;;;;;20469;6817;331374;-82
2022/11/01 10:16:04;;;;;;;1.60;1.13;;;21.80;49.40;;;;;;20790;6817;118227;-81
2022/11/01 10:18:30;;;;;;;0.75;0.70;;;21.70;49.10;;;;;;20610;6817;306336;-81
2022/11/01 10:21:01;;;;;;;0.55;0.55;;;21.90;47.80;;;;;;20811;6815;117433;-83
2022/11/01 10:23:29;;;;;;;0.60;0.50;;;21.80;48.10;;;;;;20808;6816;117407;-81
2022/11/01 10:25:55;;;;;;;0.60;0.60;;;21.70;48.60;;;;;;20712;6817;119644;-82
2022/11/01 10:28:24;;;;;;;1.80;1.70;;;21.50;48.90;;;;;;20828;6817;116827;-82
2022/11/01 10:30:50;;;;;;;1.40;1.30;;;21.40;49.10;;;;;;20542;6835;307157;-82
2022/11/01 10:33:30;;;;;;;1.60;1.53;;;21.50;48.30;;;;;;20799;6820;121329;-82
2022/11/01 10:35:56;;;;;;;1.30;1.30;;;21.50;48.30;;;;;;20747;6835;120006;-81
2022/11/01 10:38:41;;;;;;;2.47;1.20;;;21.30;48.70;;;;;;20808;6820;116642;-83
2022/11/01 10:41:10;;;;;;;0.93;0.93;;;21.10;49.20;;;;;;20549;6839;278003;-82
2022/11/01 10:43:41;;;;;;;1.60;1.20;;;21.20;48.90;;;;;;20612;6817;287452;-85
2022/11/01 10:46:07;;;;;;;1.33;1.30;;;21.50;48.70;;;;;;20836;6817;116912;-84
2022/11/01 10:48:36;;;;;;;1.37;1.27;;;21.30;48.90;;;;;;20841;6817;118034;-83
2022/11/01 10:51:02;;;;;;;0.83;0.83;;;21.30;49.20;;;;;;20623;6817;280301;-84
2022/11/01 10:53:27;;;;;;;1.33;1.33;;;21.40;48.40;;;;;;20587;6817;276872;-83
2022/11/01 10:55:55;;;;;;;1.83;1.73;;;21.70;48.30;;;;;;20802;6817;119235;-83
2022/11/01 10:58:19;;;;;;;3.20;3.10;;;21.60;48.40;;;;;;20611;6817;277046;-83
2022/11/01 11:00:46;;;;;;;2.70;2.50;;;21.90;48.40;;;;;;20563;6817;307006;-85
2022/11/01 11:03:18;;;;;;;1.70;1.50;;;21.80;48.30;;;;;;20592;6817;277231;-83
2022/11/01 11:05:43;;;;;;;1.40;1.30;;;22.00;47.80;;;;;;20556;6817;277393;-85
2022/11/01 11:08:09;;;;;;;4.05;3.80;;;22.20;48.00;;;;;;20810;6817;118135;-84
2022/11/01 11:10:36;;;;;;;1.12;1.12;;;22.00;47.50;;;;;;20802;6817;117547;-86
2022/11/01 11:13:01;;;;;;;2.60;0.93;;;21.60;47.80;;;;;;20797;6817;122679;-84
2022/11/01 11:15:52;;;;;;;0.75;0.73;;;20.90;48.40;;;;;;20798;6817;117212;-85
2022/11/01 11:18:23;;;;;;;1.47;1.37;;;20.90;48.40;;;;;;20815;6817;119604;-85
2022/11/01 11:20:55;;;;;;;0.93;0.93;;;20.70;48.80;;;;;;20589;6817;306982;-84
2022/11/01 11:23:21;;;;;;;1.00;1.00;;;20.80;48.50;;;;;;20596;6817;315924;-86
2022/11/01 11:25:46;;;;;;;1.27;0.93;;;21.20;48.50;;;;;;20595;6817;334493;-85
2022/11/01 11:28:18;;;;;;;0.80;0.80;;;21.40;47.10;;;;;;20821;6817;117305;-85
2022/11/01 11:30:43;;;;;;;1.10;1.00;;;21.40;47.30;;;;;;20600;6817;275971;-84
2022/11/01 11:33:10;;;;;;;1.03;0.93;;;21.40;46.40;;;;;;20616;6816;277878;-85
2022/11/01 11:35:37;;;;;;;0.93;0.80;;;21.60;46.10;;;;;;20813;6817;118402;-84
2022/11/01 11:38:02;;;;;;;1.65;1.02;;;21.50;46.00;;;;;;20434;6817;305369;-83
2022/11/01 11:40:28;;;;;;;1.43;1.00;;;21.40;45.90;;;;;;20817;6817;117199;-84
2022/11/01 11:42:54;;;;;;;1.47;1.30;;;21.30;46.10;;;;;;20611;6817;116729;-84
2022/11/01 11:45:29;;;;;;;1.37;1.00;;;21.10;46.70;;;;;;20799;6817;117075;-86
2022/11/01 11:47:55;;;;;;;0.83;0.70;;;20.90;47.20;;;;;;20780;6817;118393;-86
2022/11/01 11:50:20;;;;;;;1.10;0.88;;;20.70;47.40;;;;;;20812;6817;117559;-86
2022/11/01 11:52:58;;;;;;;1.23;0.95;;;20.60;47.50;;;;;;20601;6817;306256;-87
2022/11/01 11:55:40;;;;;;;1.65;1.00;;;20.80;47.30;;;;;;20595;6817;306771;-87
2022/11/01 11:58:05;;;;;;;1.90;0.87;;;21.20;47.40;;;;;;20467;6817;278248;-86
2022/11/01 12:00:34;;;;;;;1.65;1.05;;;21.50;46.10;;;;;;20516;6817;276842;-87
2022/11/01 12:03:00;;;;;;;1.50;1.00;;;21.70;45.20;;;;;;20572;6817;279845;-87
2022/11/01 12:05:28;;;;;;;2.20;1.03;;;21.70;45.10;;;;;;20799;6817;118718;-87
2022/11/01 12:07:53;;;;;;;2.10;0.90;;;21.70;45.20;;;;;;20581;6817;279354;-86
2022/11/01 12:10:35;;;;;;;1.60;1.10;;;21.70;45.00;;;;;;20583;6817;334980;-84
2022/11/01 12:13:01;;;;;;;1.10;1.00;;;21.80;44.90;;;;;;20605;6817;281858;-84
2022/11/01 12:15:26;;;;;;;1.33;0.90;;;22.00;44.40;;;;;;20606;6817;314640;-84
2022/11/01 12:17:52;;;;;;;1.77;0.70;;;22.00;44.90;;;;;;20753;6817;117301;-84
2022/11/01 12:20:23;;;;;;;2.30;1.03;;;21.90;44.80;;;;;;20798;6817;117521;-83
2022/11/01 12:23:10;;;;;;;1.10;1.03;;;21.70;45.60;;;;;;20571;6817;278639;-83
2022/11/01 12:25:39;;;;;;;1.35;1.10;;;21.80;45.70;;;;;;20593;6817;306399;-84
2022/11/01 12:28:06;;;;;;;1.20;1.10;;;22.00;45.50;;;;;;20609;6817;122666;-86
2022/11/01 12:30:31;;;;;;;1.33;1.00;;;22.00;45.50;;;;;;20779;6817;117685;-85
2022/11/01 12:32:57;;;;;;;1.47;1.17;;;21.80;45.50;;;;;;20580;6817;336444;-86
2022/11/01 12:35:29;;;;;;;1.23;0.83;;;21.90;45.20;;;;;;20795;6817;118188;-85
2022/11/01 12:38:01;;;;;;;1.63;1.00;;;21.90;45.40;;;;;;20442;6817;308335;-85
2022/11/01 12:40:30;;;;;;;2.80;1.17;;;22.00;45.70;;;;;;20774;6817;122164;-87
2022/11/01 12:43:02;;;;;;;1.33;0.80;;;22.00;45.70;;;;;;20782;6817;117878;-87
2022/11/01 12:45:44;;;;;;;1.10;1.00;;;21.90;45.90;;;;;;20809;6816;116909;-86
2022/11/01 12:48:13;;;;;;;1.00;0.90;;;21.80;45.70;;;;;;20584;6817;306493;-87
2022/11/01 12:50:42;;;;;;;2.00;1.10;;;22.00;44.50;;;;;;20563;6817;306581;-87